createdAt,value
2019-02-11T00:00:44.783Z,29.97
2019-02-11T00:03:16.175Z,28.93
2019-02-11T00:05:45.526Z,27.20
2019-02-11T00:08:15.890Z,27.70
2019-02-11T00:10:45.432Z,28.77
2019-02-11T00:13:15.718Z,28.40
2019-02-11T00:15:45.347Z,27.67
2019-02-11T00:18:15.623Z,27.97
2019-02-11T00:20:45.073Z,29.00
2019-02-11T00:23:14.560Z,29.50
2019-02-11T00:25:44.037Z,30.03
2019-02-11T00:28:13.209Z,27.40
2019-02-11T00:30:42.675Z,27.90
2019-02-11T00:33:12.168Z,29.63
2019-02-11T00:35:41.649Z,28.93
2019-02-11T00:38:10.870Z,28.03
2019-02-11T00:40:40.246Z,28.23
2019-02-11T00:43:09.748Z,27.33
2019-02-11T00:45:38.959Z,26.67
2019-02-11T00:48:08.359Z,28.83
2019-02-11T00:50:37.866Z,27.53
2019-02-11T00:53:07.058Z,28.13
2019-02-11T00:55:36.470Z,27.20
2019-02-11T00:58:05.627Z,26.80
2019-02-11T01:00:35.166Z,27.67
2019-02-11T01:03:04.558Z,27.00
2019-02-11T01:05:33.709Z,27.40
2019-02-11T01:08:03.198Z,27.83
2019-02-11T01:10:32.824Z,27.97
2019-02-11T01:13:02.186Z,28.30
2019-02-11T01:15:31.365Z,27.33
2019-02-11T01:18:00.787Z,28.37
2019-02-11T01:20:30.330Z,26.87
2019-02-11T01:22:59.889Z,27.27
2019-02-11T01:25:29.309Z,29.13
2019-02-11T01:27:58.464Z,28.03
2019-02-11T01:30:27.997Z,29.20
2019-02-11T01:32:57.405Z,28.67
2019-02-11T01:35:26.567Z,29.67
2019-02-11T01:37:56.045Z,28.50
2019-02-11T01:40:25.526Z,29.00
2019-02-11T01:42:55.039Z,30.93
2019-02-11T01:45:26.623Z,29.83
2019-02-11T01:47:56.081Z,29.43
2019-02-11T01:50:26.402Z,29.70
2019-02-11T01:52:57.578Z,29.93
2019-02-11T01:55:28.694Z,29.37
2019-02-11T01:57:57.853Z,28.50
2019-02-11T02:00:28.143Z,31.17
2019-02-11T02:03:04.187Z,29.10
2019-02-11T02:05:33.702Z,30.93
2019-02-11T02:08:07.826Z,32.57
2019-02-11T02:10:38.128Z,30.23
2019-02-11T02:13:07.512Z,31.20
2019-02-11T02:15:36.663Z,30.73
2019-02-11T02:18:06.161Z,30.63
2019-02-11T02:20:35.636Z,31.17
2019-02-11T02:23:05.168Z,31.77
2019-02-11T02:25:34.680Z,34.23
2019-02-11T02:28:03.828Z,33.87
2019-02-11T02:30:34.340Z,33.17
2019-02-11T02:33:16.372Z,33.20
2019-02-11T02:35:51.508Z,33.60
2019-02-11T02:38:20.748Z,35.90
2019-02-11T02:40:52.179Z,35.20
2019-02-11T02:43:27.378Z,36.63
2019-02-11T02:45:57.734Z,37.97
2019-02-11T02:48:27.216Z,37.30
2019-02-11T02:50:56.379Z,37.47
2019-02-11T02:53:25.863Z,36.27
2019-02-11T02:56:08.443Z,38.40
2019-02-11T02:58:38.808Z,37.83
2019-02-11T03:01:14.888Z,38.70
2019-02-11T03:03:44.357Z,40.93
2019-02-11T03:06:13.890Z,40.53
2019-02-11T03:08:44.159Z,39.50
2019-02-11T03:11:13.694Z,41.43
2019-02-11T03:13:43.988Z,42.07
2019-02-11T03:16:13.545Z,41.23
2019-02-11T03:18:42.978Z,41.53
2019-02-11T03:21:12.155Z,42.33
2019-02-11T03:23:41.664Z,42.00
2019-02-11T03:26:11.108Z,42.40
2019-02-11T03:28:40.389Z,44.13
2019-02-11T03:31:10.662Z,43.37
2019-02-11T03:33:40.859Z,45.03
2019-02-11T03:36:10.342Z,43.50
2019-02-11T03:38:39.561Z,43.73
2019-02-11T03:41:09.018Z,44.00
2019-02-11T03:43:38.475Z,45.70
2019-02-11T03:46:11.695Z,44.83
2019-02-11T03:48:41.183Z,46.00
2019-02-11T03:51:11.475Z,47.53
2019-02-11T03:53:45.608Z,47.63
2019-02-11T03:56:15.152Z,46.27
2019-02-11T03:58:44.643Z,46.83
2019-02-11T04:01:14.056Z,49.30
2019-02-11T04:03:43.501Z,47.67
2019-02-11T04:06:12.657Z,45.47
2019-02-11T04:08:42.215Z,46.63
2019-02-11T04:11:11.634Z,43.67
2019-02-11T04:13:41.115Z,44.63
2019-02-11T04:16:11.514Z,44.53
2019-02-11T04:18:40.961Z,44.10
2019-02-11T04:21:10.466Z,41.93
2019-02-11T04:23:39.990Z,44.97
2019-02-11T04:26:09.917Z,43.63
2019-02-11T04:28:39.389Z,44.03
2019-02-11T04:31:08.936Z,43.57
2019-02-11T04:33:38.390Z,43.27
2019-02-11T04:36:07.895Z,41.40
2019-02-11T04:38:37.070Z,43.13
2019-02-11T04:41:06.499Z,43.83
2019-02-11T04:43:36.823Z,43.30
2019-02-11T04:46:06.016Z,43.97
2019-02-11T04:48:35.423Z,43.63
2019-02-11T04:51:04.591Z,42.47
2019-02-11T04:53:34.296Z,42.93
2019-02-11T04:56:03.540Z,42.03
2019-02-11T04:58:32.697Z,42.33
2019-02-11T05:01:02.165Z,42.53
2019-02-11T05:03:31.658Z,40.93
2019-02-11T05:06:01.154Z,40.77
2019-02-11T05:08:30.680Z,38.10
2019-02-11T05:11:00.157Z,38.60
2019-02-11T05:13:29.649Z,37.73
2019-02-11T05:15:58.877Z,35.23
2019-02-11T05:18:28.276Z,34.17
2019-02-11T05:20:57.781Z,37.70
2019-02-11T05:23:27.303Z,36.23
2019-02-11T05:25:56.785Z,36.03
2019-02-11T05:28:26.325Z,34.67
2019-02-11T05:30:55.598Z,32.17
2019-02-11T05:33:24.883Z,30.80
2019-02-11T05:35:54.422Z,29.87
2019-02-11T05:38:23.922Z,28.60
2019-02-11T05:40:53.414Z,29.13
2019-02-11T05:43:28.668Z,28.67
2019-02-11T05:45:59.004Z,26.67
2019-02-11T05:48:28.880Z,25.40
2019-02-11T05:50:58.388Z,23.87
2019-02-11T05:53:27.930Z,24.80
2019-02-11T05:55:59.440Z,23.03
2019-02-11T05:58:28.991Z,23.90
2019-02-11T06:00:58.478Z,23.17
2019-02-11T06:03:27.978Z,23.13
2019-02-11T06:05:57.451Z,21.97
2019-02-11T06:08:27.789Z,23.67
2019-02-11T06:10:58.108Z,23.07
2019-02-11T06:13:27.273Z,21.73
2019-02-11T06:15:56.754Z,21.00
2019-02-11T06:18:26.220Z,21.43
2019-02-11T06:20:55.379Z,21.70
2019-02-11T06:23:24.851Z,20.57
2019-02-11T06:25:54.330Z,21.90
2019-02-11T06:28:23.840Z,21.30
2019-02-11T06:30:53.382Z,20.37
2019-02-11T06:33:22.847Z,19.73
2019-02-11T06:35:52.002Z,18.67
2019-02-11T06:38:21.488Z,19.40
2019-02-11T06:40:50.939Z,17.77
2019-02-11T06:43:20.161Z,18.53
2019-02-11T06:45:49.647Z,18.23
2019-02-11T06:48:19.125Z,17.70
2019-02-11T06:50:48.557Z,18.17
2019-02-11T06:53:17.818Z,16.30
2019-02-11T06:55:47.155Z,17.57
2019-02-11T06:58:17.487Z,16.63
2019-02-11T07:00:46.677Z,21.50
2019-02-11T07:03:16.079Z,22.90
2019-02-11T07:05:45.234Z,18.57
2019-02-11T07:08:14.744Z,15.20
2019-02-11T07:10:44.180Z,15.67
2019-02-11T07:13:13.344Z,14.70
2019-02-11T07:15:42.830Z,13.97
2019-02-11T07:18:12.299Z,15.03
2019-02-11T07:20:41.457Z,13.73
2019-02-11T07:23:10.940Z,13.33
2019-02-11T07:25:40.479Z,14.07
2019-02-11T07:28:09.905Z,12.77
2019-02-11T07:30:40.259Z,13.93
2019-02-11T07:33:09.596Z,14.40
2019-02-11T07:35:38.840Z,14.93
2019-02-11T07:38:08.054Z,14.03
2019-02-11T07:40:37.437Z,14.20
2019-02-11T07:43:08.222Z,15.73
2019-02-11T07:45:40.186Z,15.33
2019-02-11T07:48:09.665Z,14.30
2019-02-11T07:50:39.149Z,14.50
2019-02-11T07:53:08.338Z,14.73
2019-02-11T07:55:37.762Z,15.03
2019-02-11T07:58:14.271Z,16.33
2019-02-11T08:00:43.508Z,15.37
2019-02-11T08:03:12.828Z,16.30
2019-02-11T08:05:42.365Z,14.87
2019-02-11T08:08:11.836Z,13.70
2019-02-11T08:10:41.345Z,13.07
2019-02-11T08:13:10.868Z,13.33
2019-02-11T08:15:40.402Z,12.03
2019-02-11T08:18:09.838Z,12.13
2019-02-11T08:20:39.048Z,11.53
2019-02-11T08:23:13.266Z,11.00
2019-02-11T08:25:40.417Z,10.70
2019-02-11T08:28:09.958Z,10.80
2019-02-11T08:30:39.485Z,11.20
2019-02-11T08:33:09.212Z,10.40
2019-02-11T08:35:38.471Z,10.77
2019-02-11T08:38:07.926Z,9.00
2019-02-11T08:40:37.091Z,9.37
2019-02-11T08:43:06.589Z,7.93
2019-02-11T08:45:36.051Z,9.67
2019-02-11T08:48:06.367Z,8.13
2019-02-11T08:50:35.817Z,8.30
2019-02-11T08:53:05.043Z,9.17
2019-02-11T08:55:34.807Z,8.70
2019-02-11T08:58:05.306Z,8.90
2019-02-11T09:00:34.968Z,9.07
2019-02-11T09:03:04.343Z,8.90
2019-02-11T09:05:33.742Z,8.97
2019-02-11T09:08:02.969Z,8.37
2019-02-11T09:10:32.302Z,8.17
2019-02-11T09:13:01.644Z,7.67
2019-02-11T09:15:30.825Z,8.03
2019-02-11T09:18:00.053Z,8.60
2019-02-11T09:20:29.253Z,8.40
2019-02-11T09:22:58.405Z,7.60
2019-02-11T09:25:27.569Z,7.97
2019-02-11T09:27:56.763Z,7.00
2019-02-11T09:30:25.915Z,6.47
2019-02-11T09:32:55.077Z,7.27
2019-02-11T09:35:24.317Z,6.87
2019-02-11T09:37:53.555Z,6.40
2019-02-11T09:40:22.852Z,6.87
2019-02-11T09:42:52.079Z,6.83
2019-02-11T09:45:26.245Z,6.63
2019-02-11T09:47:55.736Z,5.67
2019-02-11T09:50:38.501Z,5.67
2019-02-11T09:53:07.725Z,5.63
2019-02-11T09:55:36.998Z,5.23
2019-02-11T09:58:06.331Z,10.13
2019-02-11T10:00:36.091Z,6.50
2019-02-11T10:03:06.285Z,5.97
2019-02-11T10:05:35.555Z,5.83
2019-02-11T10:08:04.780Z,5.83
2019-02-11T10:10:34.255Z,6.00
2019-02-11T10:13:03.664Z,5.90
2019-02-11T10:15:33.080Z,5.57
2019-02-11T10:18:02.369Z,5.97
2019-02-11T10:20:32.910Z,5.60
2019-02-11T10:23:02.146Z,5.77
2019-02-11T10:25:32.141Z,5.63
2019-02-11T10:28:04.693Z,6.13
2019-02-11T10:30:34.156Z,5.80
2019-02-11T10:33:03.391Z,5.77
2019-02-11T10:35:32.730Z,5.17
2019-02-11T10:38:02.118Z,4.77
2019-02-11T10:40:31.353Z,4.97
2019-02-11T10:43:00.857Z,4.27
2019-02-11T10:45:36.415Z,4.57
2019-02-11T10:48:01.470Z,4.60
2019-02-11T10:50:30.753Z,4.50
2019-02-11T10:53:00.072Z,4.43
2019-02-11T10:55:30.532Z,5.07
2019-02-11T10:57:59.953Z,3.47
2019-02-11T11:00:29.547Z,4.07
2019-02-11T11:02:58.914Z,4.83
2019-02-11T11:05:28.852Z,5.50
2019-02-11T11:07:58.326Z,4.93
2019-02-11T11:10:39.303Z,5.33
2019-02-11T11:13:08.942Z,5.77
2019-02-11T11:15:38.389Z,5.23
2019-02-11T11:18:08.695Z,4.90
2019-02-11T11:20:38.519Z,4.00
2019-02-11T11:23:07.672Z,4.23
2019-02-11T11:25:36.866Z,4.57
2019-02-11T11:28:06.352Z,4.07
2019-02-11T11:30:37.810Z,3.50
2019-02-11T11:33:07.129Z,3.20
2019-02-11T11:35:36.284Z,2.90
2019-02-11T11:38:05.505Z,2.20
2019-02-11T11:40:35.107Z,2.90
2019-02-11T11:43:04.662Z,3.00
2019-02-11T11:45:34.336Z,3.70
2019-02-11T11:48:03.643Z,3.30
2019-02-11T11:50:33.191Z,2.90
2019-02-11T11:53:02.634Z,2.90
2019-02-11T11:55:32.238Z,3.10
2019-02-11T11:58:01.727Z,3.33
2019-02-11T12:00:34.390Z,3.70
2019-02-11T12:03:05.693Z,3.90
2019-02-11T12:05:35.139Z,3.90
2019-02-11T12:08:04.381Z,4.00
2019-02-11T12:10:34.459Z,3.00
2019-02-11T12:13:21.742Z,2.60
2019-02-11T12:15:36.693Z,2.90
2019-02-11T12:18:08.769Z,3.40
2019-02-11T12:20:38.980Z,3.50
2019-02-11T12:23:08.524Z,3.80
2019-02-11T12:25:38.057Z,4.70
2019-02-11T12:28:14.457Z,5.53
2019-02-11T12:30:45.625Z,5.90
2019-02-11T12:33:15.121Z,6.27
2019-02-11T12:35:44.615Z,7.23
2019-02-11T12:38:15.023Z,8.33
2019-02-11T12:40:45.283Z,11.03
2019-02-11T12:43:14.578Z,11.77
2019-02-11T12:45:45.127Z,11.00
2019-02-11T12:48:14.612Z,11.47
2019-02-11T12:50:44.102Z,11.17
2019-02-11T12:53:16.901Z,9.80
2019-02-11T12:55:46.468Z,11.13
2019-02-11T12:58:16.704Z,10.23
2019-02-11T13:00:45.976Z,11.50
2019-02-11T13:03:16.145Z,11.70
2019-02-11T13:05:46.627Z,14.00
2019-02-11T13:08:16.583Z,14.30
2019-02-11T13:10:45.968Z,15.23
2019-02-11T13:13:15.411Z,13.33
2019-02-11T13:15:59.898Z,9.73
2019-02-11T13:18:16.222Z,10.17
2019-02-11T13:20:47.603Z,8.70
2019-02-11T13:23:17.132Z,9.10
2019-02-11T13:25:46.310Z,9.97
2019-02-11T13:28:15.702Z,9.80
2019-02-11T13:30:45.235Z,10.13
2019-02-11T13:33:17.590Z,12.30
2019-02-11T13:35:49.138Z,12.27
2019-02-11T13:38:18.717Z,13.63
2019-02-11T13:40:48.154Z,15.50
2019-02-11T13:43:18.456Z,15.73
2019-02-11T13:45:48.288Z,16.67
2019-02-11T13:48:18.860Z,16.07
2019-02-11T13:50:48.702Z,17.13
2019-02-11T13:53:18.175Z,18.07
2019-02-11T13:55:48.477Z,19.63
2019-02-11T13:58:18.105Z,21.43
2019-02-11T14:00:50.263Z,23.70
2019-02-11T14:03:20.279Z,22.10
2019-02-11T14:05:50.228Z,20.90
2019-02-11T14:08:19.787Z,21.93
2019-02-11T14:10:49.084Z,22.23
2019-02-11T14:13:18.657Z,20.23
2019-02-11T14:15:47.863Z,21.07
2019-02-11T14:18:17.152Z,20.30
2019-02-11T14:20:49.902Z,18.90
2019-02-11T14:23:23.714Z,18.37
2019-02-11T14:25:53.197Z,19.27
2019-02-11T14:28:23.548Z,16.30
2019-02-11T14:30:53.036Z,15.37
2019-02-11T14:33:22.625Z,13.87
2019-02-11T14:35:57.004Z,14.17
2019-02-11T14:38:26.297Z,11.77
2019-02-11T14:40:55.580Z,10.43
2019-02-11T14:43:25.931Z,10.87
2019-02-11T14:45:55.408Z,12.20
2019-02-11T14:48:28.111Z,10.83
2019-02-11T14:50:56.886Z,11.43
2019-02-11T14:53:34.554Z,11.23
2019-02-11T14:56:05.011Z,10.27
2019-02-11T14:58:34.339Z,9.80
2019-02-11T15:01:03.563Z,12.70
2019-02-11T15:03:33.047Z,9.33
2019-02-11T15:06:02.531Z,9.47
2019-02-11T15:08:32.856Z,10.10
2019-02-11T15:11:02.340Z,10.17
2019-02-11T15:13:31.885Z,10.07
2019-02-11T15:16:01.514Z,9.60
2019-02-11T15:18:34.271Z,9.97
2019-02-11T15:21:01.955Z,10.13
2019-02-11T15:23:31.447Z,11.20
2019-02-11T15:26:00.634Z,11.40
2019-02-11T15:28:36.589Z,13.27
2019-02-11T15:31:05.855Z,15.13
2019-02-11T15:33:54.346Z,16.57
2019-02-11T15:36:23.662Z,15.47
2019-02-11T15:38:53.070Z,15.23
2019-02-11T15:41:23.424Z,14.37
2019-02-11T15:43:52.928Z,14.57
2019-02-11T15:46:22.380Z,14.23
2019-02-11T15:48:51.886Z,14.37
2019-02-11T15:51:21.109Z,13.70
2019-02-11T15:53:50.495Z,14.17
2019-02-11T15:56:19.881Z,13.43
2019-02-11T15:58:49.697Z,14.13
2019-02-11T16:01:19.013Z,14.50
2019-02-11T16:03:48.209Z,13.03
2019-02-11T16:06:17.738Z,14.27
2019-02-11T16:08:47.119Z,12.43
2019-02-11T16:11:16.287Z,12.80
2019-02-11T16:13:46.633Z,12.07
2019-02-11T16:16:16.048Z,12.47
2019-02-11T16:18:51.627Z,12.07
2019-02-11T16:21:16.103Z,12.67
2019-02-11T16:23:45.423Z,12.00
2019-02-11T16:26:15.098Z,10.67
2019-02-11T16:28:44.498Z,12.10
2019-02-11T16:31:15.426Z,12.27
2019-02-11T16:33:44.713Z,14.67
2019-02-11T16:36:14.208Z,14.40
2019-02-11T16:38:43.678Z,14.40
2019-02-11T16:41:13.169Z,15.10
2019-02-11T16:43:42.859Z,14.47
2019-02-11T16:46:12.178Z,14.83
2019-02-11T16:48:41.734Z,13.23
2019-02-11T16:51:12.087Z,14.17
2019-02-11T16:53:41.495Z,12.53
2019-02-11T16:56:10.655Z,12.57
2019-02-11T16:58:39.925Z,11.80
2019-02-11T17:01:09.183Z,11.17
2019-02-11T17:03:38.361Z,12.17
2019-02-11T17:06:07.840Z,11.87
2019-02-11T17:08:38.185Z,11.83
2019-02-11T17:11:08.477Z,13.03
2019-02-11T17:13:38.050Z,13.07
2019-02-11T17:16:08.766Z,13.80
2019-02-11T17:18:38.221Z,15.20
2019-02-11T17:21:07.961Z,14.23
2019-02-11T17:23:37.217Z,13.60
2019-02-11T17:26:06.699Z,11.70
2019-02-11T17:28:37.909Z,11.47
2019-02-11T17:31:07.381Z,9.90
2019-02-11T17:33:36.853Z,10.93
2019-02-11T17:36:06.040Z,10.57
2019-02-11T17:38:35.483Z,9.63
2019-02-11T17:41:04.956Z,9.17
2019-02-11T17:43:36.950Z,8.47
2019-02-11T17:46:12.363Z,7.77
2019-02-11T17:48:42.521Z,7.67
2019-02-11T17:51:12.145Z,7.97
2019-02-11T17:53:41.384Z,7.40
2019-02-11T17:56:11.859Z,9.97
2019-02-11T17:58:41.387Z,10.33
2019-02-11T18:01:10.823Z,10.43
2019-02-11T18:03:40.186Z,10.57
2019-02-11T18:06:09.800Z,10.37
2019-02-11T18:08:39.192Z,9.90
2019-02-11T18:11:08.479Z,10.83
2019-02-11T18:13:37.714Z,9.87
2019-02-11T18:16:07.061Z,9.97
2019-02-11T18:18:36.611Z,9.30
2019-02-11T18:21:05.875Z,9.73
2019-02-11T18:23:35.168Z,9.40
2019-02-11T18:26:04.637Z,9.60
2019-02-11T18:28:33.974Z,9.13
2019-02-11T18:31:03.412Z,9.37
2019-02-11T18:33:32.973Z,8.57
2019-02-11T18:36:02.285Z,7.37
2019-02-11T18:38:31.907Z,8.53
2019-02-11T18:41:01.325Z,10.13
2019-02-11T18:43:30.813Z,9.30
2019-02-11T18:46:00.379Z,11.03
2019-02-11T18:48:29.957Z,14.23
2019-02-11T18:51:02.302Z,14.83
2019-02-11T18:53:36.276Z,13.97
2019-02-11T18:56:06.321Z,14.90
2019-02-11T18:58:36.898Z,13.87
2019-02-11T19:01:05.897Z,13.13
2019-02-11T19:03:34.727Z,12.87
2019-02-11T19:06:03.304Z,12.67
2019-02-11T19:08:32.222Z,12.67
2019-02-11T19:11:01.118Z,13.10
2019-02-11T19:13:29.827Z,12.03
2019-02-11T19:15:59.741Z,11.43
2019-02-11T19:18:29.357Z,12.40
2019-02-11T19:20:58.689Z,12.07
2019-02-11T19:23:27.858Z,11.37
2019-02-11T19:25:57.327Z,11.73
2019-02-11T19:28:26.790Z,11.10
2019-02-11T19:30:55.957Z,11.10
2019-02-11T19:33:25.448Z,10.37
2019-02-11T19:35:54.907Z,8.43
2019-02-11T19:38:24.067Z,10.20
2019-02-11T19:40:53.681Z,10.93
2019-02-11T19:43:23.006Z,9.23
2019-02-11T19:45:52.163Z,8.57
2019-02-11T19:48:21.682Z,9.10
2019-02-11T19:50:51.175Z,8.83
2019-02-11T19:53:20.701Z,9.37
2019-02-11T19:55:50.156Z,9.77
2019-02-11T19:58:19.724Z,10.37
2019-02-11T20:00:49.250Z,9.73
2019-02-11T20:03:18.690Z,11.00
2019-02-11T20:05:49.055Z,10.87
2019-02-11T20:08:19.290Z,11.00
2019-02-11T20:10:48.520Z,10.73
2019-02-11T20:13:18.045Z,10.70
2019-02-11T20:15:47.418Z,9.83
2019-02-11T20:18:16.939Z,11.00
2019-02-11T20:20:46.985Z,11.63
2019-02-11T20:23:16.332Z,11.80
2019-02-11T20:25:45.531Z,11.83
2019-02-11T20:28:14.998Z,11.43
2019-02-11T20:30:44.502Z,11.07
2019-02-11T20:33:14.087Z,12.03
2019-02-11T20:35:43.468Z,11.13
2019-02-11T20:38:12.636Z,9.60
2019-02-11T20:40:42.135Z,10.27
2019-02-11T20:43:11.575Z,10.70
2019-02-11T20:45:41.892Z,11.03
2019-02-11T20:48:11.097Z,10.47
2019-02-11T20:50:41.363Z,11.67
2019-02-11T20:53:10.812Z,12.37
2019-02-11T20:55:42.554Z,11.97
2019-02-11T20:58:12.351Z,12.27
2019-02-11T21:00:43.153Z,12.43
2019-02-11T21:03:13.371Z,12.77
2019-02-11T21:05:42.839Z,19.07
2019-02-11T21:08:12.338Z,12.63
2019-02-11T21:10:41.557Z,15.10
2019-02-11T21:13:10.959Z,13.40
2019-02-11T21:15:40.466Z,11.20
2019-02-11T21:18:10.002Z,10.33
2019-02-11T21:20:44.407Z,9.93
2019-02-11T21:23:13.971Z,9.03
2019-02-11T21:25:43.503Z,10.30
2019-02-11T21:28:12.883Z,14.93
2019-02-11T21:30:42.034Z,12.97
2019-02-11T21:33:11.575Z,12.83
2019-02-11T21:35:40.985Z,12.23
2019-02-11T21:38:10.142Z,12.00
2019-02-11T21:40:39.644Z,13.17
2019-02-11T21:43:09.175Z,13.50
2019-02-11T21:45:38.605Z,13.67
2019-02-11T21:48:07.823Z,12.30
2019-02-11T21:50:37.223Z,12.13
2019-02-11T21:53:06.382Z,13.57
2019-02-11T21:55:35.862Z,12.30
2019-02-11T21:58:06.135Z,12.43
2019-02-11T22:00:35.402Z,18.07
2019-02-11T22:03:05.570Z,22.97
2019-02-11T22:05:34.942Z,19.73
2019-02-11T22:08:05.386Z,17.60
2019-02-11T22:10:34.557Z,17.40
2019-02-11T22:13:03.998Z,16.53
2019-02-11T22:15:33.339Z,16.50
2019-02-11T22:18:02.673Z,16.57
2019-02-11T22:20:34.639Z,17.63
2019-02-11T22:23:03.239Z,17.33
2019-02-11T22:25:33.604Z,18.13
2019-02-11T22:28:03.075Z,16.87
2019-02-11T22:30:32.656Z,16.47
2019-02-11T22:33:02.937Z,16.13
2019-02-11T22:35:32.563Z,16.53
2019-02-11T22:38:01.922Z,17.23
2019-02-11T22:40:31.240Z,15.43
2019-02-11T22:43:00.728Z,15.50
2019-02-11T22:45:30.095Z,16.87
2019-02-11T22:47:59.549Z,17.30
2019-02-11T22:50:29.149Z,18.33
2019-02-11T22:52:58.529Z,16.83
2019-02-11T22:55:27.714Z,16.80
2019-02-11T22:57:57.198Z,17.30
2019-02-11T23:00:46.496Z,17.73
2019-02-11T23:03:15.958Z,17.83
2019-02-11T23:05:45.433Z,16.83
2019-02-11T23:08:14.875Z,14.53
2019-02-11T23:10:45.290Z,14.93
2019-02-11T23:13:14.785Z,16.50
2019-02-11T23:15:44.260Z,17.63
2019-02-11T23:18:13.670Z,17.50
2019-02-11T23:20:51.536Z,16.53
2019-02-11T23:23:14.498Z,16.37
2019-02-11T23:25:43.822Z,17.27
2019-02-11T23:28:13.321Z,16.53
2019-02-11T23:30:42.986Z,16.87
2019-02-11T23:33:12.333Z,15.67
2019-02-11T23:35:41.831Z,16.53
2019-02-11T23:38:11.033Z,15.93
2019-02-11T23:40:40.275Z,16.10
2019-02-11T23:43:09.602Z,16.33
2019-02-11T23:45:39.156Z,16.37
2019-02-11T23:48:08.554Z,16.57
2019-02-11T23:50:39.696Z,16.90
2019-02-11T23:53:08.995Z,17.77
2019-02-11T23:55:38.382Z,17.53
2019-02-11T23:58:07.783Z,17.17
